Terminal Aerodrome Forecast
Issued by NWS Shreveport, LA

Home | Current Version | Previous Version | Text Only | Print | Product List | Glossary On
Versions: 1 2 3 4 5 6 7 8 9 10 11 12 13
000
FTUS44 KSHV 180800 AAA
TAFGGG
TAF AMD
KGGG 180813Z 1808/1906 19004KT P6SM BKN150 BKN250
      TEMPO 1810/1813 BKN007
     FM181300 16006KT P6SM SCT030 BKN250
      TEMPO 1813/1815 BKN020
     FM181800 16006KT P6SM VCTS BKN040CB BKN100
     FM190300 15004KT P6SM BKN120 BKN250=

USA.gov is the U.S. government's official web portal to all federal, state and local government web resources and services.